Portada
METAR-TAF:

METAR-TAF

Aeroports :

Bou Saâda, Algèria

latitud: 35-20N, longitud: 004-12E, altitud: 461 m

Observació

L'informe es va fer fa 1 hora i 9 minuts, a les 17:00 UTC
Vent 2 kt del Est/Sud-Est
Temperatura 23°C
Humitat 73%
Pressió 1015 hPa
Visibilitat 10 km o més
sense núvols per sota de 1500 mi sense presència de cumulonimbus.

METAR: DAAD 191700Z 11002KT CAVOK 23/18 Q1015

Hora: 19:09 (18:09 UTC)

Pronòstic

L'informe es va fer fa 1 hora i 9 minuts, a les 17:00 UTC
Pronòstic vàlid del 19 a les 18 UTC al 20 a les 03 UTC
Vent 8 kt del Est/Sud-Est
Visibilitat 10 km o més
Escasses núvols a una alçada de 2600 ft
Núvols disperses a una alçada de 20000 ft

TAF: DAAD 191700Z 1918/2003 12008KT 9999 FEW026 SCT200

Observacions i pronòstics meteorològics de més de 4000 aeroports (METAR i TAF).

Les estacions disponibles són els punts grocs i vermells al mapa.

Posi el ratolí al punt desitjat per veure el nom de l'estació.

Feu clic per veure les observacions i els pronòstics meteorològics.

Per canviar el mapa: feu clic els botons verds amb una creu de color negre per apropar; al botó verd amb un guió per allunyar la imatge; o en les fletxes verdes per a mapes adjacents.


METAR-TAF: